Time;durP1;ratioP1;P1;durP2;ratioP2;P2;SDS_P1;SDS_P2;PMS_P1;PMS_P2;Temp;Humidity;BMP_temperature;BMP_pressure;BME280_temperature;BME280_humidity;BME280_pressure;Samples;Min_cycle;Max_cycle;Signal;HPM_P1;HPM_P2
2024/04/01 00:01:19;;;;;;;5.40;3.83;;;9.40;99.90;;;;;;4945292;28;20216;-65
2024/04/01 00:03:45;;;;;;;4.67;4.23;;;9.40;99.90;;;;;;4946013;28;20299;-64
2024/04/01 00:06:12;;;;;;;5.10;4.00;;;9.40;99.90;;;;;;4947435;28;20242;-64
2024/04/01 00:08:40;;;;;;;5.53;4.13;;;9.40;99.90;;;;;;4931803;28;20296;-64
2024/04/01 00:11:08;;;;;;;4.10;3.63;;;9.40;99.90;;;;;;4944879;28;20200;-65
2024/04/01 00:13:34;;;;;;;6.17;3.80;;;9.30;99.90;;;;;;4948121;28;20224;-65
2024/04/01 00:16:01;;;;;;;5.03;3.97;;;9.20;99.90;;;;;;4946029;28;20220;-64
2024/04/01 00:18:28;;;;;;;4.10;3.80;;;9.20;99.90;;;;;;4944331;28;20224;-64
2024/04/01 00:20:59;;;;;;;6.93;3.80;;;9.10;99.90;;;;;;4948568;28;20228;-64
2024/04/01 00:23:25;;;;;;;4.50;3.97;;;9.10;99.90;;;;;;4944336;28;20283;-65
2024/04/01 00:25:54;;;;;;;4.33;3.87;;;9.10;99.90;;;;;;4946933;28;20232;-65
2024/04/01 00:28:20;;;;;;;4.97;3.70;;;9.10;99.90;;;;;;4941704;28;20231;-65
2024/04/01 00:30:48;;;;;;;4.13;3.60;;;9.10;99.90;;;;;;4944427;28;20630;-64
2024/04/01 00:33:14;;;;;;;5.63;3.63;;;9.00;99.90;;;;;;4947133;28;20242;-64
2024/04/01 00:35:44;;;;;;;4.20;3.80;;;9.00;99.90;;;;;;4941398;28;20331;-64
2024/04/01 00:38:11;;;;;;;5.57;4.00;;;9.00;99.90;;;;;;4948449;28;20199;-65
2024/04/01 00:40:38;;;;;;;4.13;3.73;;;9.00;99.90;;;;;;4945042;28;20227;-64
2024/04/01 00:43:07;;;;;;;4.90;3.60;;;9.00;99.90;;;;;;4947817;28;20222;-64
2024/04/01 00:45:38;;;;;;;3.80;3.50;;;9.00;99.90;;;;;;4941373;28;20262;-64
2024/04/01 00:48:06;;;;;;;3.70;3.50;;;9.00;99.90;;;;;;4946433;28;20251;-64
2024/04/01 00:50:35;;;;;;;3.80;3.13;;;8.90;99.90;;;;;;4949582;28;20211;-59
2024/04/01 00:53:03;;;;;;;4.87;3.37;;;9.00;99.90;;;;;;4947938;28;20208;-64
2024/04/01 00:55:31;;;;;;;4.70;2.97;;;9.00;99.90;;;;;;4947573;28;20307;-64
2024/04/01 00:58:00;;;;;;;7.10;3.07;;;9.00;99.90;;;;;;4948451;28;20742;-64
2024/04/01 01:00:30;;;;;;;2.90;2.70;;;9.00;99.90;;;;;;4951210;28;20307;-64
2024/04/01 01:02:57;;;;;;;2.90;2.80;;;9.00;99.90;;;;;;4949467;28;20310;-64
2024/04/01 01:05:25;;;;;;;2.50;2.40;;;9.00;99.90;;;;;;4947179;28;20201;-65
2024/04/01 01:07:53;;;;;;;2.90;2.70;;;9.00;99.90;;;;;;4934648;29;20227;-64
2024/04/01 01:10:22;;;;;;;2.70;2.50;;;9.00;99.90;;;;;;4941293;28;20220;-65
2024/04/01 01:12:49;;;;;;;2.50;2.40;;;9.00;99.90;;;;;;4951179;28;20228;-65
2024/04/01 01:15:17;;;;;;;2.53;2.33;;;9.00;99.90;;;;;;4950932;28;20223;-65
2024/04/01 01:17:45;;;;;;;3.23;2.67;;;9.00;99.90;;;;;;4947778;28;20275;-64
2024/04/01 01:20:13;;;;;;;2.57;2.40;;;9.00;99.90;;;;;;4950442;28;20215;-64
2024/04/01 01:22:42;;;;;;;8.20;2.90;;;9.00;99.90;;;;;;4947127;28;20220;-65
2024/04/01 01:25:09;;;;;;;3.03;2.30;;;9.00;99.90;;;;;;4949066;28;20629;-64
2024/04/01 01:27:36;;;;;;;2.53;2.33;;;9.00;99.90;;;;;;4949888;28;20224;-64
2024/04/01 01:30:04;;;;;;;2.80;2.60;;;8.90;99.90;;;;;;4949728;28;20238;-65
2024/04/01 01:32:31;;;;;;;2.87;2.10;;;8.90;99.90;;;;;;4947631;28;20266;-64
2024/04/01 01:34:58;;;;;;;2.50;2.30;;;8.90;99.90;;;;;;4931863;29;20314;-64
2024/04/01 01:37:26;;;;;;;3.17;2.57;;;8.90;99.90;;;;;;4951134;28;20216;-64
2024/04/01 01:39:54;;;;;;;2.00;2.00;;;8.80;99.90;;;;;;4948645;28;20216;-64
2024/04/01 01:42:21;;;;;;;2.60;2.40;;;8.80;99.90;;;;;;4947651;28;20220;-64
2024/04/01 01:44:47;;;;;;;2.83;2.47;;;8.80;99.90;;;;;;4949090;28;20196;-63
2024/04/01 01:47:15;;;;;;;2.70;2.50;;;8.80;99.90;;;;;;4946341;28;20230;-65
2024/04/01 01:49:41;;;;;;;2.23;2.13;;;8.80;99.90;;;;;;4949255;28;20318;-64
2024/04/01 01:52:09;;;;;;;2.60;2.47;;;8.80;99.90;;;;;;4949699;28;20222;-64
2024/04/01 01:54:35;;;;;;;3.27;2.30;;;8.80;99.90;;;;;;4936239;29;20225;-64
2024/04/01 01:57:05;;;;;;;3.43;2.80;;;8.80;99.90;;;;;;4942998;28;20224;-64
2024/04/01 01:59:32;;;;;;;5.33;2.40;;;8.90;99.90;;;;;;4947417;28;20206;-64
2024/04/01 02:01:59;;;;;;;5.17;2.77;;;8.90;99.90;;;;;;4945133;28;20270;-64
2024/04/01 02:04:25;;;;;;;4.33;2.80;;;8.90;99.90;;;;;;4947938;28;20228;-64
2024/04/01 02:06:53;;;;;;;4.47;3.00;;;8.80;99.90;;;;;;4947738;28;20226;-65
2024/04/01 02:09:22;;;;;;;3.30;2.97;;;8.80;99.90;;;;;;4946969;28;20220;-64
2024/04/01 02:11:49;;;;;;;5.93;3.13;;;8.70;99.90;;;;;;4948418;28;20192;-64
2024/04/01 02:14:17;;;;;;;3.57;3.20;;;8.70;99.90;;;;;;4946085;28;20223;-64
2024/04/01 02:16:44;;;;;;;7.53;3.03;;;8.70;99.90;;;;;;4947477;28;20223;-64
2024/04/01 02:19:11;;;;;;;3.67;3.27;;;8.70;99.90;;;;;;4947185;28;20325;-64
2024/04/01 02:21:38;;;;;;;3.50;3.20;;;8.70;99.90;;;;;;4947417;28;20232;-64
2024/04/01 02:24:05;;;;;;;5.17;3.33;;;8.60;99.90;;;;;;4942715;28;20635;-64
2024/04/01 02:26:34;;;;;;;4.77;3.17;;;8.70;99.90;;;;;;4934915;29;20279;-64
2024/04/01 02:29:00;;;;;;;3.30;3.00;;;8.70;99.90;;;;;;4950632;28;20228;-64
2024/04/01 02:31:29;;;;;;;3.60;3.30;;;8.60;99.90;;;;;;4948616;28;20291;-64
2024/04/01 02:33:55;;;;;;;4.47;3.43;;;8.60;99.90;;;;;;4941645;28;20698;-64
2024/04/01 02:36:23;;;;;;;3.67;3.37;;;8.60;99.90;;;;;;4951488;28;20794;-64
2024/04/01 02:38:49;;;;;;;4.20;3.70;;;8.60;99.90;;;;;;4948100;28;20208;-63
2024/04/01 02:41:17;;;;;;;3.70;3.40;;;8.60;99.90;;;;;;4948077;28;20223;-65
2024/04/01 02:43:43;;;;;;;3.77;3.40;;;8.60;99.90;;;;;;4948419;28;20239;-65
2024/04/01 02:46:11;;;;;;;4.13;3.40;;;8.60;99.90;;;;;;4946858;28;20319;-65
2024/04/01 02:48:38;;;;;;;4.10;3.70;;;8.60;99.90;;;;;;4945539;28;20232;-65
2024/04/01 02:51:06;;;;;;;3.80;3.50;;;8.60;99.90;;;;;;4946475;28;20307;-64
2024/04/01 02:53:32;;;;;;;4.37;4.00;;;8.60;99.90;;;;;;4933908;28;20220;-64
2024/04/01 02:56:00;;;;;;;6.27;3.70;;;8.60;99.90;;;;;;4947341;28;20227;-65
2024/04/01 02:58:26;;;;;;;6.70;3.80;;;8.50;99.90;;;;;;4947134;28;20216;-64
2024/04/01 03:00:53;;;;;;;4.30;3.90;;;8.50;99.90;;;;;;4947931;28;20222;-64
2024/04/01 03:03:20;;;;;;;5.30;3.90;;;8.50;99.90;;;;;;4950884;28;20263;-64
2024/04/01 03:05:49;;;;;;;4.07;3.87;;;8.50;99.90;;;;;;4949068;28;20837;-64
2024/04/01 03:08:16;;;;;;;4.27;3.97;;;8.50;99.90;;;;;;4935164;28;20291;-64
2024/04/01 03:10:43;;;;;;;4.27;3.97;;;8.40;99.90;;;;;;4944903;28;20228;-64
2024/04/01 03:13:10;;;;;;;4.83;4.43;;;8.40;99.90;;;;;;4944033;28;20773;-64
2024/04/01 03:15:37;;;;;;;3.90;3.63;;;8.30;99.90;;;;;;4950418;28;20231;-64
2024/04/01 03:18:04;;;;;;;4.20;4.00;;;8.30;99.90;;;;;;4946738;28;20361;-64
2024/04/01 03:20:33;;;;;;;4.67;4.23;;;8.30;99.90;;;;;;4951278;28;20686;-64
2024/04/01 03:23:00;;;;;;;4.60;4.30;;;8.20;99.90;;;;;;4944003;28;20680;-65
2024/04/01 03:25:28;;;;;;;4.70;4.37;;;8.20;99.90;;;;;;4943810;28;20665;-65
2024/04/01 03:27:54;;;;;;;4.93;4.53;;;8.30;99.90;;;;;;4943655;28;20662;-65
2024/04/01 03:30:21;;;;;;;5.13;4.63;;;8.20;99.90;;;;;;4950509;28;20307;-64
2024/04/01 03:32:48;;;;;;;5.17;4.87;;;8.20;99.90;;;;;;4945706;28;20231;-65
2024/04/01 03:35:16;;;;;;;7.33;4.60;;;8.20;99.90;;;;;;4946982;28;20728;-64
2024/04/01 03:37:43;;;;;;;9.03;5.03;;;8.10;99.90;;;;;;4943387;28;20215;-65
2024/04/01 03:40:12;;;;;;;4.87;4.57;;;8.10;99.90;;;;;;4949083;28;20315;-64
2024/04/01 03:42:40;;;;;;;5.20;4.80;;;8.10;99.90;;;;;;4947242;28;20221;-65
2024/04/01 03:45:07;;;;;;;5.10;4.70;;;8.10;99.90;;;;;;4948596;28;20226;-66
2024/04/01 03:47:34;;;;;;;5.73;4.70;;;8.00;99.90;;;;;;4951690;28;20196;-60
2024/04/01 03:50:02;;;;;;;6.03;4.90;;;7.90;99.90;;;;;;4946518;28;20200;-65
2024/04/01 03:52:29;;;;;;;5.53;5.00;;;7.90;99.90;;;;;;4947817;28;20240;-64
2024/04/01 03:54:56;;;;;;;5.10;4.43;;;7.80;99.90;;;;;;4944398;28;20224;-65
2024/04/01 03:57:25;;;;;;;6.03;4.90;;;7.80;99.90;;;;;;4948776;28;20219;-64
2024/04/01 03:59:51;;;;;;;4.97;4.57;;;7.70;99.90;;;;;;4947345;28;20715;-64
2024/04/01 04:02:18;;;;;;;4.80;4.50;;;7.70;99.90;;;;;;4946834;28;20194;-64
2024/04/01 04:04:45;;;;;;;6.17;5.07;;;7.70;99.90;;;;;;4946321;28;20282;-65
2024/04/01 04:07:13;;;;;;;7.80;5.37;;;7.70;99.90;;;;;;4948958;28;20311;-64
2024/04/01 04:09:39;;;;;;;7.00;5.53;;;7.70;99.90;;;;;;4946509;28;20223;-64
2024/04/01 04:12:07;;;;;;;5.33;4.83;;;7.70;99.90;;;;;;4929991;28;20250;-64
2024/04/01 04:14:35;;;;;;;7.97;5.63;;;7.70;99.90;;;;;;4947585;28;20671;-63
2024/04/01 04:17:02;;;;;;;7.77;5.67;;;7.70;99.90;;;;;;4948297;28;20552;-64
2024/04/01 04:19:29;;;;;;;7.67;6.47;;;7.80;99.90;;;;;;4947516;28;20224;-64
2024/04/01 04:21:56;;;;;;;8.17;5.67;;;7.70;99.90;;;;;;4945589;28;20290;-64
2024/04/01 04:24:25;;;;;;;7.87;6.43;;;7.80;99.90;;;;;;4943372;28;20219;-64
2024/04/01 04:26:52;;;;;;;6.80;6.10;;;7.80;99.90;;;;;;4949560;28;20203;-64
2024/04/01 04:29:18;;;;;;;6.77;5.77;;;7.80;99.90;;;;;;4948308;28;20592;-64
2024/04/01 04:31:54;;;;;;;6.70;6.10;;;7.80;99.90;;;;;;4948950;28;20307;-65
2024/04/01 04:34:21;;;;;;;6.93;6.17;;;7.80;99.90;;;;;;4947356;28;20227;-63
2024/04/01 04:36:48;;;;;;;7.10;6.40;;;7.80;99.90;;;;;;4946413;28;20586;-64
2024/04/01 04:39:24;;;;;;;7.00;6.17;;;7.90;99.90;;;;;;4931989;29;20350;-64
2024/04/01 04:41:52;;;;;;;8.83;6.50;;;7.90;99.90;;;;;;4946020;28;20206;-64
2024/04/01 04:44:18;;;;;;;6.60;6.00;;;7.90;99.90;;;;;;4944803;28;20201;-64
2024/04/01 04:46:46;;;;;;;10.10;6.20;;;7.90;99.90;;;;;;4941978;28;20229;-64
2024/04/01 04:49:14;;;;;;;8.03;6.27;;;7.90;99.90;;;;;;4944865;28;20235;-65
2024/04/01 04:51:41;;;;;;;6.70;5.70;;;7.90;99.90;;;;;;4951559;28;20212;-64
2024/04/01 04:54:07;;;;;;;6.30;5.80;;;7.90;99.90;;;;;;4945281;28;20243;-64
2024/04/01 04:56:35;;;;;;;7.10;5.80;;;7.90;99.90;;;;;;4944187;28;20187;-63
2024/04/01 04:59:02;;;;;;;6.50;5.90;;;7.90;99.90;;;;;;4948501;28;20663;-64
2024/04/01 05:01:29;;;;;;;6.87;6.07;;;7.90;99.90;;;;;;4943672;28;20230;-64
2024/04/01 05:03:55;;;;;;;7.90;6.20;;;7.90;99.90;;;;;;4943943;28;20217;-64
2024/04/01 05:06:24;;;;;;;6.50;5.90;;;7.90;99.90;;;;;;4944269;28;20234;-63
2024/04/01 05:08:51;;;;;;;9.77;6.40;;;7.90;99.90;;;;;;4944389;28;20247;-63
2024/04/01 05:11:18;;;;;;;7.03;5.87;;;7.90;99.90;;;;;;4941646;28;20201;-63
2024/04/01 05:13:44;;;;;;;6.47;5.73;;;7.80;99.90;;;;;;4947744;28;20224;-63
2024/04/01 05:16:14;;;;;;;7.07;5.90;;;7.90;99.90;;;;;;4948685;28;20634;-64
2024/04/01 05:18:41;;;;;;;6.53;5.93;;;7.80;99.90;;;;;;4932553;29;20232;-63
2024/04/01 05:21:08;;;;;;;6.33;5.73;;;7.80;99.90;;;;;;4948412;28;20215;-64
2024/04/01 05:23:36;;;;;;;7.77;5.67;;;7.80;99.90;;;;;;4946313;28;20200;-63
2024/04/01 05:26:05;;;;;;;7.00;6.30;;;7.80;99.90;;;;;;4944219;28;20204;-64
2024/04/01 05:28:31;;;;;;;6.00;5.47;;;7.90;99.90;;;;;;4946987;28;20227;-64
2024/04/01 05:30:59;;;;;;;6.50;5.63;;;7.90;99.90;;;;;;4926712;29;20623;-65
2024/04/01 05:33:31;;;;;;;6.83;5.67;;;7.90;99.90;;;;;;4946107;28;20552;-64
2024/04/01 05:35:59;;;;;;;6.37;5.63;;;7.80;99.90;;;;;;4949912;28;20252;-64
2024/04/01 05:38:26;;;;;;;7.53;6.00;;;7.90;99.90;;;;;;4950760;28;20215;-64
2024/04/01 05:40:55;;;;;;;7.67;5.57;;;7.80;99.90;;;;;;4946702;28;20230;-64
2024/04/01 05:43:21;;;;;;;5.90;5.40;;;7.80;99.90;;;;;;4946256;28;20224;-65
2024/04/01 05:45:50;;;;;;;8.03;6.30;;;7.80;99.90;;;;;;4949617;28;20690;-64
2024/04/01 05:48:16;;;;;;;6.83;5.33;;;7.80;99.90;;;;;;4950502;28;20239;-64
2024/04/01 05:50:48;;;;;;;7.07;5.67;;;7.90;99.90;;;;;;4946181;28;20482;-64
2024/04/01 05:53:14;;;;;;;6.37;5.77;;;7.90;99.90;;;;;;4948410;28;20272;-64
2024/04/01 05:55:42;;;;;;;6.80;6.20;;;7.90;99.90;;;;;;4949406;28;20222;-65
2024/04/01 05:58:10;;;;;;;6.47;5.80;;;7.90;99.90;;;;;;4942310;28;20227;-64
2024/04/01 06:00:38;;;;;;;6.10;5.50;;;7.90;99.90;;;;;;4951313;28;20235;-64
2024/04/01 06:03:05;;;;;;;5.77;5.13;;;7.90;99.90;;;;;;4948272;28;20307;-64
2024/04/01 06:05:33;;;;;;;9.63;5.33;;;7.90;99.90;;;;;;4951469;28;20196;-64
2024/04/01 06:07:59;;;;;;;5.73;5.07;;;8.00;99.90;;;;;;4945212;28;20303;-64
2024/04/01 06:10:27;;;;;;;5.23;4.83;;;8.00;99.90;;;;;;4950990;28;20231;-65
2024/04/01 06:12:54;;;;;;;6.50;5.50;;;8.00;99.90;;;;;;4947155;28;20234;-64
2024/04/01 06:15:23;;;;;;;8.87;5.17;;;8.00;99.90;;;;;;4950120;28;20250;-64
2024/04/01 06:17:51;;;;;;;6.87;4.80;;;8.00;99.90;;;;;;4943541;28;20211;-64
2024/04/01 06:20:18;;;;;;;5.57;5.07;;;8.00;99.90;;;;;;4951785;28;20188;-64
2024/04/01 06:22:45;;;;;;;5.80;4.50;;;8.10;99.90;;;;;;4946824;28;20315;-64
2024/04/01 06:25:12;;;;;;;4.80;4.50;;;8.20;99.90;;;;;;4952379;28;20323;-64
2024/04/01 06:27:39;;;;;;;5.13;4.60;;;8.20;99.90;;;;;;4945333;28;20262;-64
2024/04/01 06:30:08;;;;;;;4.37;4.07;;;8.30;99.90;;;;;;4952682;28;20691;-64
2024/04/01 06:32:38;;;;;;;7.23;4.63;;;8.30;99.90;;;;;;4946403;28;20200;-64
2024/04/01 06:35:05;;;;;;;5.30;4.73;;;8.30;99.90;;;;;;4950473;28;20223;-64
2024/04/01 06:37:32;;;;;;;4.90;4.50;;;8.30;99.90;;;;;;4950508;28;20212;-64
2024/04/01 06:39:59;;;;;;;4.77;4.37;;;8.30;99.90;;;;;;4947373;28;20228;-64
2024/04/01 06:42:26;;;;;;;4.97;4.13;;;8.40;99.90;;;;;;4945921;28;20671;-64
2024/04/01 06:44:54;;;;;;;6.37;4.07;;;8.50;99.90;;;;;;4929363;28;20188;-64
2024/04/01 06:47:21;;;;;;;6.80;4.33;;;8.50;99.90;;;;;;4949253;28;20199;-65
2024/04/01 06:49:49;;;;;;;4.60;4.20;;;8.50;99.90;;;;;;4945191;28;20308;-64
2024/04/01 06:52:20;;;;;;;5.30;4.07;;;8.60;99.90;;;;;;4930826;29;20359;-64
2024/04/01 06:54:48;;;;;;;4.23;3.90;;;8.60;99.90;;;;;;4946759;28;20216;-64
2024/04/01 06:57:14;;;;;;;5.77;3.80;;;8.70;99.90;;;;;;4943459;28;21332;-65
2024/04/01 06:59:41;;;;;;;4.03;3.70;;;8.70;99.90;;;;;;4930059;28;20279;-64
2024/04/01 07:02:08;;;;;;;4.03;3.77;;;8.80;99.90;;;;;;4945619;28;20742;-65
2024/04/01 07:04:35;;;;;;;4.37;3.63;;;8.90;99.90;;;;;;4948596;28;20215;-65
2024/04/01 07:07:03;;;;;;;4.30;3.90;;;8.90;99.90;;;;;;4949223;28;20215;-65
2024/04/01 07:09:31;;;;;;;3.40;3.20;;;9.00;99.90;;;;;;4943880;28;20219;-65
2024/04/01 07:11:57;;;;;;;4.07;3.77;;;9.00;99.90;;;;;;4946787;28;20219;-66
2024/04/01 07:14:27;;;;;;;4.73;3.97;;;9.10;99.90;;;;;;4946634;28;20220;-66
2024/04/01 07:16:54;;;;;;;3.63;3.43;;;9.10;99.90;;;;;;4945259;28;20293;-66
2024/04/01 07:19:21;;;;;;;3.87;3.57;;;9.20;99.90;;;;;;4931351;28;20220;-65
2024/04/01 07:21:48;;;;;;;3.53;3.33;;;9.20;99.90;;;;;;4951131;28;20754;-64
2024/04/01 07:24:17;;;;;;;3.57;3.37;;;9.20;99.90;;;;;;4944764;28;20216;-64
2024/04/01 07:26:43;;;;;;;4.83;4.17;;;9.20;99.90;;;;;;4944456;28;20288;-64
2024/04/01 07:29:10;;;;;;;5.47;3.80;;;9.20;99.90;;;;;;4951927;28;20262;-65
2024/04/01 07:31:37;;;;;;;3.93;3.37;;;9.20;99.90;;;;;;4964185;28;20616;-65
2024/04/01 07:34:04;;;;;;;3.97;3.70;;;9.30;99.90;;;;;;4932663;28;20232;-65
2024/04/01 07:36:30;;;;;;;3.60;3.40;;;9.30;99.90;;;;;;4948932;28;20310;-64
2024/04/01 07:38:58;;;;;;;4.60;3.70;;;9.30;99.90;;;;;;4944225;28;20224;-64
2024/04/01 07:41:26;;;;;;;5.80;3.30;;;9.30;99.90;;;;;;4946410;28;20206;-64
2024/04/01 07:43:54;;;;;;;3.93;3.53;;;9.40;99.90;;;;;;4944111;28;20220;-65
2024/04/01 07:46:20;;;;;;;3.70;3.13;;;9.40;99.90;;;;;;4950759;28;20216;-64
2024/04/01 07:48:47;;;;;;;3.83;3.30;;;9.40;99.90;;;;;;4948223;28;20307;-64
2024/04/01 07:51:14;;;;;;;4.03;3.73;;;9.50;99.90;;;;;;4950379;28;20228;-65
2024/04/01 07:53:41;;;;;;;4.77;3.20;;;9.50;99.90;;;;;;4946965;28;20197;-64
2024/04/01 07:56:07;;;;;;;3.40;3.20;;;9.60;99.90;;;;;;4950700;28;20239;-65
2024/04/01 07:58:36;;;;;;;3.40;3.10;;;9.60;99.90;;;;;;4945550;28;20224;-65
2024/04/01 08:01:05;;;;;;;6.50;3.70;;;9.60;99.90;;;;;;4947185;28;20266;-64
2024/04/01 08:03:32;;;;;;;6.17;3.73;;;9.70;99.90;;;;;;4948426;28;20311;-65
2024/04/01 08:05:59;;;;;;;7.07;3.13;;;9.80;99.90;;;;;;4947540;28;20883;-65
2024/04/01 08:08:26;;;;;;;3.90;3.50;;;9.80;99.90;;;;;;4948946;28;20684;-65
2024/04/01 08:10:53;;;;;;;3.70;3.43;;;9.80;99.90;;;;;;4939005;28;20782;-65
2024/04/01 08:13:20;;;;;;;3.60;3.30;;;9.90;99.90;;;;;;4947648;28;20219;-67
2024/04/01 08:15:57;;;;;;;3.57;3.37;;;9.90;99.90;;;;;;4940520;28;20494;-65
2024/04/01 08:18:25;;;;;;;7.13;3.53;;;9.90;99.90;;;;;;4944107;28;20705;-64
2024/04/01 08:20:51;;;;;;;4.80;3.20;;;9.90;99.90;;;;;;4945268;28;20210;-64
2024/04/01 08:23:19;;;;;;;3.50;3.20;;;10.00;99.90;;;;;;4945868;28;20224;-65
2024/04/01 08:25:45;;;;;;;3.40;3.20;;;10.00;99.90;;;;;;4951676;28;20684;-64
2024/04/01 08:28:12;;;;;;;3.37;3.03;;;10.10;99.90;;;;;;4947504;28;20240;-64
2024/04/01 08:30:39;;;;;;;3.27;3.10;;;10.10;99.90;;;;;;4947744;28;20313;-65
2024/04/01 08:33:08;;;;;;;3.70;3.40;;;10.20;99.90;;;;;;4945218;28;20230;-64
2024/04/01 08:35:34;;;;;;;3.80;3.50;;;10.20;99.90;;;;;;4947414;28;20224;-63
2024/04/01 08:38:02;;;;;;;3.53;3.33;;;10.30;99.90;;;;;;4940203;28;20205;-65
2024/04/01 08:40:32;;;;;;;3.50;3.30;;;10.40;99.90;;;;;;4943420;28;20378;-65
2024/04/01 08:43:09;;;;;;;3.73;3.43;;;10.50;99.90;;;;;;4948609;28;20298;-65
2024/04/01 08:45:38;;;;;;;3.30;3.00;;;10.50;99.90;;;;;;4945526;28;20219;-65
2024/04/01 08:48:10;;;;;;;4.40;3.30;;;10.60;99.90;;;;;;4949115;28;20234;-65
2024/04/01 08:50:41;;;;;;;3.57;2.90;;;10.80;99.90;;;;;;4942551;28;20566;-65
2024/04/01 08:53:12;;;;;;;3.13;3.00;;;10.80;99.90;;;;;;4945614;28;20587;-65
2024/04/01 08:55:39;;;;;;;3.63;3.10;;;11.00;99.90;;;;;;4944564;28;20355;-65
2024/04/01 08:58:06;;;;;;;3.27;2.97;;;11.10;99.90;;;;;;4929946;28;20804;-65
2024/04/01 09:00:33;;;;;;;3.27;3.00;;;11.20;99.90;;;;;;4945156;28;20807;-65
2024/04/01 09:03:00;;;;;;;9.03;3.20;;;11.30;99.90;;;;;;4940853;28;20223;-66
2024/04/01 09:05:28;;;;;;;2.97;2.77;;;11.40;99.90;;;;;;4946711;28;20192;-65
2024/04/01 09:07:56;;;;;;;3.07;2.87;;;11.50;99.90;;;;;;4927421;28;20220;-65
2024/04/01 09:10:22;;;;;;;3.30;3.00;;;11.60;99.90;;;;;;4949386;28;20295;-65
2024/04/01 09:12:54;;;;;;;3.33;3.00;;;11.70;99.90;;;;;;4949040;28;20224;-65
2024/04/01 09:15:22;;;;;;;3.53;3.23;;;11.80;99.90;;;;;;4944621;28;20227;-65
2024/04/01 09:17:49;;;;;;;4.33;2.77;;;11.90;99.90;;;;;;4943362;28;20291;-64
2024/04/01 09:20:16;;;;;;;3.20;3.00;;;11.90;99.90;;;;;;4946344;28;20201;-65
2024/04/01 09:22:45;;;;;;;2.97;2.77;;;11.90;99.90;;;;;;4946672;28;20315;-64
2024/04/01 09:25:11;;;;;;;3.50;2.70;;;12.10;99.90;;;;;;4945581;28;20327;-65
2024/04/01 09:27:38;;;;;;;2.97;2.77;;;12.30;99.90;;;;;;4934222;28;20231;-64
2024/04/01 09:30:06;;;;;;;2.77;2.67;;;12.40;99.90;;;;;;4944835;28;20230;-65
2024/04/01 09:32:34;;;;;;;4.03;2.80;;;12.70;99.90;;;;;;4950562;28;20797;-65
2024/04/01 09:35:01;;;;;;;2.50;2.30;;;12.70;99.90;;;;;;4951689;28;20617;-65
2024/04/01 09:37:29;;;;;;;3.00;2.80;;;12.80;99.90;;;;;;4953372;28;20219;-65
2024/04/01 09:39:57;;;;;;;2.70;2.50;;;12.90;99.90;;;;;;4953207;28;20303;-65
2024/04/01 09:42:25;;;;;;;3.08;2.80;;;12.80;99.90;;;;;;4946341;28;20452;-65
2024/04/01 09:44:52;;;;;;;2.80;2.60;;;12.80;99.90;;;;;;4946781;28;20204;-65
2024/04/01 09:47:19;;;;;;;2.60;2.50;;;12.70;99.90;;;;;;4950886;28;20196;-65
2024/04/01 09:49:47;;;;;;;7.23;2.90;;;12.60;99.90;;;;;;4946141;28;20220;-66
2024/04/01 09:52:15;;;;;;;3.53;3.00;;;12.60;99.90;;;;;;4950243;28;20229;-65
2024/04/01 09:54:42;;;;;;;2.90;2.70;;;12.50;99.90;;;;;;4947696;28;20307;-65
2024/04/01 09:58:01;;;;;;;3.00;2.80;;;12.50;99.90;;;;;;4945119;28;20487;-65
2024/04/01 10:00:39;;;;;;;3.10;2.80;;;12.50;99.90;;;;;;4953021;28;20230;-65
2024/04/01 10:03:43;;;;;;;3.37;3.20;;;12.50;99.90;;;;;;4944223;28;20224;-66
2024/04/01 10:07:00;;;;;;;3.10;2.80;;;12.70;99.90;;;;;;4950769;28;20225;-65
2024/04/01 10:10:00;;;;;;;2.87;2.73;;;13.00;99.90;;;;;;4938355;28;20240;-66
2024/04/01 10:13:06;;;;;;;3.37;2.47;;;13.40;93.60;;;;;;4944760;28;20250;-65
2024/04/01 10:16:12;;;;;;;2.83;2.40;;;14.00;99.90;;;;;;4945598;28;20240;-66
2024/04/01 10:19:05;;;;;;;2.70;2.10;;;14.70;50.30;;;;;;4872317;28;20230;-65
2024/04/01 10:22:10;;;;;;;3.10;2.40;;;15.40;24.00;;;;;;4949290;28;20218;-65
2024/04/01 10:25:15;;;;;;;3.40;2.37;;;15.80;37.00;;;;;;4946491;28;20220;-65
2024/04/01 10:28:25;;;;;;;2.60;2.40;;;15.40;1.00;;;;;;4945271;28;20218;-66
2024/04/01 10:31:27;;;;;;;3.73;2.73;;;15.30;27.90;;;;;;4966235;28;20226;-65
2024/04/01 10:34:44;;;;;;;4.40;2.67;;;15.30;1.00;;;;;;4918363;28;20226;-65
2024/04/01 10:37:37;;;;;;;2.10;2.00;;;15.30;1.00;;;;;;4938646;28;20326;-65
2024/04/01 10:40:08;;;;;;;2.47;2.37;;;15.50;1.00;;;;;;4945911;28;20247;-66
2024/04/01 10:43:11;;;;;;;2.17;1.90;;;15.80;1.00;;;;;;4944447;28;20219;-66
2024/04/01 10:46:26;;;;;;;2.60;2.40;;;16.60;1.00;;;;;;4944912;28;20228;-66
2024/04/01 10:49:16;;;;;;;2.20;2.10;;;17.50;99.90;;;;;;4945634;28;20824;-66
2024/04/01 10:52:21;;;;;;;2.23;2.00;;;17.90;44.50;;;;;;4944431;28;20298;-66
2024/04/01 10:55:10;;;;;;;1.97;1.90;;;18.10;99.90;;;;;;4949911;28;20232;-66
2024/04/01 10:58:08;;;;;;;1.97;1.83;;;18.00;1.00;;;;;;4941621;28;20252;-65
2024/04/01 11:01:03;;;;;;;3.20;1.50;;;18.30;1.00;;;;;;4937274;28;20567;-65
2024/04/01 11:04:06;;;;;;;1.70;1.60;;;19.30;99.90;;;;;;4929755;28;20230;-65
2024/04/01 11:06:55;;;;;;;2.10;1.30;;;19.60;1.00;;;;;;4938885;28;20365;-65
2024/04/01 11:09:38;;;;;;;1.60;1.50;;;19.70;1.00;;;;;;4943066;28;20731;-65
2024/04/01 11:12:19;;;;;;;1.67;1.57;;;20.40;99.90;;;;;;4941625;28;20237;-65
2024/04/01 11:14:49;;;;;;;1.87;1.30;;;20.50;1.00;;;;;;4949395;28;20870;-65
2024/04/01 11:17:18;;;;;;;1.60;1.50;;;19.70;1.00;;;;;;4943868;28;20531;-66
2024/04/01 11:20:05;;;;;;;1.33;1.33;;;19.10;73.30;;;;;;4943023;28;20304;-64
2024/04/01 11:22:43;;;;;;;1.50;1.40;;;19.00;1.00;;;;;;4944046;28;20251;-66
2024/04/01 11:25:14;;;;;;;1.90;1.40;;;18.70;1.00;;;;;;4947773;28;20357;-65
2024/04/01 11:28:06;;;;;;;2.80;1.30;;;18.30;1.00;;;;;;4944045;28;20224;-66
2024/04/01 11:30:36;;;;;;;1.10;1.10;;;18.40;99.90;;;;;;4944854;28;20232;-66
2024/04/01 11:33:07;;;;;;;1.80;0.90;;;19.50;99.90;;;;;;4945222;28;20258;-65
2024/04/01 11:35:45;;;;;;;1.90;1.10;;;20.40;1.00;;;;;;4945453;28;20588;-64
2024/04/01 11:38:23;;;;;;;2.53;1.13;;;19.70;99.90;;;;;;4942482;28;20660;-65
2024/04/01 11:40:53;;;;;;;0.90;0.90;;;19.20;1.00;;;;;;4945475;28;20227;-65
2024/04/01 11:43:22;;;;;;;1.47;1.10;;;19.70;1.00;;;;;;4941940;28;20227;-65
2024/04/01 11:45:53;;;;;;;3.40;1.20;;;19.20;1.00;;;;;;4942782;28;20859;-65
2024/04/01 11:48:22;;;;;;;1.20;1.00;;;19.00;1.00;;;;;;4931203;28;20876;-65
2024/04/01 11:50:50;;;;;;;0.80;0.80;;;19.00;1.00;;;;;;4944538;28;20192;-65
2024/04/01 11:53:17;;;;;;;0.97;0.80;;;18.70;99.90;;;;;;4942867;28;20255;-66
2024/04/01 11:55:52;;;;;;;1.57;1.30;;;18.90;1.00;;;;;;4944297;28;20220;-66
2024/04/01 11:58:19;;;;;;;1.77;1.40;;;18.60;1.00;;;;;;4940502;28;20671;-64
2024/04/01 12:00:53;;;;;;;2.43;1.50;;;18.20;1.00;;;;;;4930957;29;20247;-65
2024/04/01 12:03:23;;;;;;;1.50;1.40;;;18.30;1.00;;;;;;4943542;28;20226;-65
2024/04/01 12:05:51;;;;;;;1.27;1.20;;;18.40;1.00;;;;;;4941221;28;20189;-64
2024/04/01 12:08:19;;;;;;;4.40;1.30;;;18.00;1.00;;;;;;4946709;28;20283;-65
2024/04/01 12:10:48;;;;;;;1.23;1.23;;;17.70;1.00;;;;;;4948648;28;20219;-65
2024/04/01 12:13:16;;;;;;;2.60;1.20;;;17.30;1.00;;;;;;4943648;28;20227;-65
2024/04/01 12:15:46;;;;;;;1.23;1.23;;;17.40;1.00;;;;;;4943451;28;20251;-65
2024/04/01 12:18:16;;;;;;;1.40;1.30;;;17.40;1.00;;;;;;4942387;28;20371;-65
2024/04/01 12:20:45;;;;;;;1.23;1.13;;;17.30;1.00;;;;;;4944394;28;20211;-63
2024/04/01 12:23:12;;;;;;;2.00;1.53;;;17.10;99.90;;;;;;4948386;28;20208;-65
2024/04/01 12:25:40;;;;;;;1.33;1.20;;;17.10;1.00;;;;;;4946909;28;20282;-66
2024/04/01 12:28:08;;;;;;;2.40;1.27;;;17.00;1.00;;;;;;4949071;28;20314;-66
2024/04/01 12:30:37;;;;;;;2.60;0.90;;;17.40;1.00;;;;;;4927958;28;20224;-65
2024/04/01 12:33:05;;;;;;;1.87;1.00;;;17.60;1.00;;;;;;4933843;28;20327;-65
2024/04/01 12:35:33;;;;;;;2.37;1.00;;;17.50;1.00;;;;;;4943419;28;20228;-65
2024/04/01 12:38:03;;;;;;;1.00;0.87;;;18.30;1.00;;;;;;4935142;28;20267;-66
2024/04/01 12:40:42;;;;;;;1.33;0.83;;;18.80;1.00;;;;;;4940805;28;20699;-66
2024/04/01 12:43:12;;;;;;;5.93;1.00;;;18.50;99.90;;;;;;4947184;28;20224;-66
2024/04/01 12:45:41;;;;;;;1.63;0.93;;;18.00;99.90;;;;;;4947090;28;20311;-66
2024/04/01 12:48:12;;;;;;;2.53;1.10;;;17.60;1.00;;;;;;4949562;28;20655;-65
2024/04/01 12:50:43;;;;;;;1.63;0.93;;;17.50;1.00;;;;;;4938398;28;20196;-64
2024/04/01 12:53:31;;;;;;;2.10;0.90;;;17.90;1.00;;;;;;4951768;28;20195;-65
2024/04/01 12:56:11;;;;;;;1.27;0.80;;;18.00;1.00;;;;;;4948357;28;20255;-65
2024/04/01 12:58:45;;;;;;;3.30;1.17;;;17.90;99.90;;;;;;4947703;28;20306;-66
2024/04/01 13:01:29;;;;;;;1.80;1.17;;;18.10;99.90;;;;;;4947445;28;20311;-66
2024/04/01 13:04:18;;;;;;;1.03;0.93;;;17.50;99.90;;;;;;4952191;28;20223;-66
2024/04/01 13:06:52;;;;;;;1.03;0.90;;;17.20;1.00;;;;;;4952913;28;20224;-66
2024/04/01 13:09:26;;;;;;;1.37;1.00;;;17.00;99.90;;;;;;4955401;28;20226;-65
2024/04/01 13:12:14;;;;;;;1.13;1.00;;;17.30;1.00;;;;;;4953133;28;20300;-65
2024/04/01 13:14:56;;;;;;;1.87;1.00;;;17.70;99.90;;;;;;4949178;28;20568;-65